sensor_id;sensor_type;location;lat;lon;timestamp;temperature;humidity
14049;DHT22;7099;53.922;10.728;2023-03-23T00:01:41;11.60;72.20
14049;DHT22;7099;53.922;10.728;2023-03-23T00:05:45;11.60;72.10
14049;DHT22;7099;53.922;10.728;2023-03-23T00:09:54;11.60;72.30
14049;DHT22;7099;53.922;10.728;2023-03-23T00:14:00;11.60;72.60
14049;DHT22;7099;53.922;10.728;2023-03-23T00:18:05;11.50;72.80
14049;DHT22;7099;53.922;10.728;2023-03-23T00:22:09;11.50;73.00
14049;DHT22;7099;53.922;10.728;2023-03-23T00:26:18;11.40;73.40
14049;DHT22;7099;53.922;10.728;2023-03-23T00:30:23;11.40;73.60
14049;DHT22;7099;53.922;10.728;2023-03-23T00:34:27;11.40;73.80
14049;DHT22;7099;53.922;10.728;2023-03-23T00:38:37;11.40;74.10
14049;DHT22;7099;53.922;10.728;2023-03-23T00:42:42;11.30;75.10
14049;DHT22;7099;53.922;10.728;2023-03-23T00:46:48;11.40;74.70
14049;DHT22;7099;53.922;10.728;2023-03-23T00:50:53;11.30;75.10
14049;DHT22;7099;53.922;10.728;2023-03-23T00:54:58;11.30;76.00
14049;DHT22;7099;53.922;10.728;2023-03-23T00:59:03;11.30;75.60
14049;DHT22;7099;53.922;10.728;2023-03-23T01:03:08;11.30;75.80
14049;DHT22;7099;53.922;10.728;2023-03-23T01:07:16;11.30;76.60
14049;DHT22;7099;53.922;10.728;2023-03-23T01:11:22;11.20;76.20
14049;DHT22;7099;53.922;10.728;2023-03-23T01:15:28;11.20;76.50
14049;DHT22;7099;53.922;10.728;2023-03-23T01:19:33;11.20;76.80
14049;DHT22;7099;53.922;10.728;2023-03-23T01:23:38;11.20;77.00
14049;DHT22;7099;53.922;10.728;2023-03-23T01:27:43;11.20;77.30
14049;DHT22;7099;53.922;10.728;2023-03-23T01:31:47;11.20;77.50
14049;DHT22;7099;53.922;10.728;2023-03-23T01:35:52;11.20;77.70
14049;DHT22;7099;53.922;10.728;2023-03-23T01:39:57;11.10;77.90
14049;DHT22;7099;53.922;10.728;2023-03-23T01:48:36;11.10;78.60
14049;DHT22;7099;53.922;10.728;2023-03-23T01:52:41;11.10;78.60
14049;DHT22;7099;53.922;10.728;2023-03-23T01:57:04;11.10;78.90
14049;DHT22;7099;53.922;10.728;2023-03-23T02:01:15;11.20;79.80
14049;DHT22;7099;53.922;10.728;2023-03-23T02:05:40;11.10;79.30
14049;DHT22;7099;53.922;10.728;2023-03-23T02:09:45;11.10;80.40
14049;DHT22;7099;53.922;10.728;2023-03-23T02:13:50;11.10;79.40
14049;DHT22;7099;53.922;10.728;2023-03-23T02:18:16;11.10;79.50
14049;DHT22;7099;53.922;10.728;2023-03-23T02:31:44;11.10;80.60
14049;DHT22;7099;53.922;10.728;2023-03-23T02:35:58;11.10;80.00
14049;DHT22;7099;53.922;10.728;2023-03-23T02:40:07;11.10;80.50
14049;DHT22;7099;53.922;10.728;2023-03-23T02:44:17;11.10;80.40
14049;DHT22;7099;53.922;10.728;2023-03-23T02:48:24;11.00;80.70
14049;DHT22;7099;53.922;10.728;2023-03-23T02:52:32;11.00;80.90
14049;DHT22;7099;53.922;10.728;2023-03-23T02:56:38;11.00;81.00
14049;DHT22;7099;53.922;10.728;2023-03-23T03:00:43;11.00;81.20
14049;DHT22;7099;53.922;10.728;2023-03-23T03:13:50;11.00;81.80
14049;DHT22;7099;53.922;10.728;2023-03-23T03:18:11;11.00;82.10
14049;DHT22;7099;53.922;10.728;2023-03-23T03:22:19;11.00;82.30
14049;DHT22;7099;53.922;10.728;2023-03-23T03:26:26;11.00;82.00
14049;DHT22;7099;53.922;10.728;2023-03-23T03:30:35;11.00;82.30
14049;DHT22;7099;53.922;10.728;2023-03-23T03:34:40;11.00;82.70
14049;DHT22;7099;53.922;10.728;2023-03-23T03:38:49;11.00;82.40
14049;DHT22;7099;53.922;10.728;2023-03-23T03:42:54;11.00;82.60
14049;DHT22;7099;53.922;10.728;2023-03-23T03:46:59;11.10;82.50
14049;DHT22;7099;53.922;10.728;2023-03-23T03:51:04;11.00;82.60
14049;DHT22;7099;53.922;10.728;2023-03-23T03:55:09;11.10;82.70
14049;DHT22;7099;53.922;10.728;2023-03-23T03:59:14;11.00;82.60
14049;DHT22;7099;53.922;10.728;2023-03-23T04:03:18;11.10;82.60
14049;DHT22;7099;53.922;10.728;2023-03-23T04:07:23;11.10;82.70
14049;DHT22;7099;53.922;10.728;2023-03-23T04:11:32;11.10;82.70
14049;DHT22;7099;53.922;10.728;2023-03-23T04:15:37;11.10;82.80
14049;DHT22;7099;53.922;10.728;2023-03-23T04:19:43;11.00;82.80
14049;DHT22;7099;53.922;10.728;2023-03-23T04:23:49;11.10;82.80
14049;DHT22;7099;53.922;10.728;2023-03-23T04:27:54;11.10;82.80
14049;DHT22;7099;53.922;10.728;2023-03-23T04:31:59;11.20;83.00
14049;DHT22;7099;53.922;10.728;2023-03-23T04:36:05;11.00;83.40
14049;DHT22;7099;53.922;10.728;2023-03-23T04:40:11;11.10;82.80
14049;DHT22;7099;53.922;10.728;2023-03-23T04:44:18;11.10;82.90
14049;DHT22;7099;53.922;10.728;2023-03-23T04:48:27;11.10;82.80
14049;DHT22;7099;53.922;10.728;2023-03-23T04:52:39;11.10;83.40
14049;DHT22;7099;53.922;10.728;2023-03-23T04:56:45;11.10;82.80
14049;DHT22;7099;53.922;10.728;2023-03-23T05:00:50;11.10;83.30
14049;DHT22;7099;53.922;10.728;2023-03-23T05:04:57;11.10;82.60
14049;DHT22;7099;53.922;10.728;2023-03-23T05:09:03;11.10;82.60
14049;DHT22;7099;53.922;10.728;2023-03-23T05:13:08;11.10;82.50
14049;DHT22;7099;53.922;10.728;2023-03-23T05:17:14;11.10;82.40
14049;DHT22;7099;53.922;10.728;2023-03-23T05:21:20;11.10;82.50
14049;DHT22;7099;53.922;10.728;2023-03-23T05:25:25;11.10;82.50
14049;DHT22;7099;53.922;10.728;2023-03-23T05:29:30;11.10;82.40
14049;DHT22;7099;53.922;10.728;2023-03-23T05:33:35;11.10;82.30
14049;DHT22;7099;53.922;10.728;2023-03-23T05:37:40;11.10;82.10
14049;DHT22;7099;53.922;10.728;2023-03-23T05:41:44;11.20;82.10
14049;DHT22;7099;53.922;10.728;2023-03-23T05:45:50;11.10;82.00
14049;DHT22;7099;53.922;10.728;2023-03-23T05:49:55;11.10;82.00
14049;DHT22;7099;53.922;10.728;2023-03-23T05:54:00;11.10;82.10
14049;DHT22;7099;53.922;10.728;2023-03-23T05:58:05;11.10;82.70
14049;DHT22;7099;53.922;10.728;2023-03-23T06:02:11;11.10;82.10
14049;DHT22;7099;53.922;10.728;2023-03-23T06:06:15;11.20;82.20
14049;DHT22;7099;53.922;10.728;2023-03-23T06:10:21;11.10;82.10
14049;DHT22;7099;53.922;10.728;2023-03-23T06:14:27;11.20;82.70
14049;DHT22;7099;53.922;10.728;2023-03-23T06:18:31;11.20;82.10
14049;DHT22;7099;53.922;10.728;2023-03-23T06:22:38;11.20;82.20
14049;DHT22;7099;53.922;10.728;2023-03-23T06:26:43;11.20;82.20
14049;DHT22;7099;53.922;10.728;2023-03-23T06:30:48;11.20;82.20
14049;DHT22;7099;53.922;10.728;2023-03-23T06:34:52;11.20;82.20
14049;DHT22;7099;53.922;10.728;2023-03-23T06:38:57;11.30;82.20
14049;DHT22;7099;53.922;10.728;2023-03-23T06:43:03;11.20;82.10
14049;DHT22;7099;53.922;10.728;2023-03-23T06:47:08;11.30;82.40
14049;DHT22;7099;53.922;10.728;2023-03-23T06:51:12;11.30;82.40
14049;DHT22;7099;53.922;10.728;2023-03-23T06:55:17;11.40;82.30
14049;DHT22;7099;53.922;10.728;2023-03-23T06:59:22;11.40;82.00
14049;DHT22;7099;53.922;10.728;2023-03-23T07:03:26;11.50;82.20
14049;DHT22;7099;53.922;10.728;2023-03-23T07:07:33;11.50;82.00
14049;DHT22;7099;53.922;10.728;2023-03-23T07:11:38;11.60;81.90
14049;DHT22;7099;53.922;10.728;2023-03-23T07:15:42;11.70;81.60
14049;DHT22;7099;53.922;10.728;2023-03-23T07:19:48;11.80;81.80
14049;DHT22;7099;53.922;10.728;2023-03-23T07:23:53;12.00;82.20
14049;DHT22;7099;53.922;10.728;2023-03-23T07:27:57;12.10;81.40
14049;DHT22;7099;53.922;10.728;2023-03-23T07:32:02;12.10;80.80
14049;DHT22;7099;53.922;10.728;2023-03-23T07:36:07;12.20;80.60
14049;DHT22;7099;53.922;10.728;2023-03-23T07:40:13;12.30;80.40
14049;DHT22;7099;53.922;10.728;2023-03-23T07:44:21;12.30;79.50
14049;DHT22;7099;53.922;10.728;2023-03-23T07:48:26;12.40;80.00
14049;DHT22;7099;53.922;10.728;2023-03-23T07:52:30;12.60;79.60
14049;DHT22;7099;53.922;10.728;2023-03-23T07:56:36;12.70;78.50
14049;DHT22;7099;53.922;10.728;2023-03-23T08:00:41;12.80;78.60
14049;DHT22;7099;53.922;10.728;2023-03-23T08:04:45;12.70;77.40
14049;DHT22;7099;53.922;10.728;2023-03-23T08:08:52;12.70;77.10
14049;DHT22;7099;53.922;10.728;2023-03-23T08:12:57;12.70;76.80
14049;DHT22;7099;53.922;10.728;2023-03-23T08:17:04;12.70;76.80
14049;DHT22;7099;53.922;10.728;2023-03-23T08:21:09;12.80;77.50
14049;DHT22;7099;53.922;10.728;2023-03-23T08:25:14;12.80;77.40
14049;DHT22;7099;53.922;10.728;2023-03-23T08:29:21;12.80;76.80
14049;DHT22;7099;53.922;10.728;2023-03-23T08:33:26;12.70;76.20
14049;DHT22;7099;53.922;10.728;2023-03-23T08:37:31;12.70;76.10
14049;DHT22;7099;53.922;10.728;2023-03-23T08:41:36;12.70;74.80
14049;DHT22;7099;53.922;10.728;2023-03-23T08:45:43;12.50;73.70
14049;DHT22;7099;53.922;10.728;2023-03-23T08:49:49;12.40;73.90
14049;DHT22;7099;53.922;10.728;2023-03-23T08:53:57;12.50;74.50
14049;DHT22;7099;53.922;10.728;2023-03-23T08:58:01;12.50;74.40
14049;DHT22;7099;53.922;10.728;2023-03-23T09:02:10;12.50;73.70
14049;DHT22;7099;53.922;10.728;2023-03-23T09:06:17;12.50;73.50
14049;DHT22;7099;53.922;10.728;2023-03-23T09:10:21;12.60;73.00
14049;DHT22;7099;53.922;10.728;2023-03-23T09:14:26;12.60;73.00
14049;DHT22;7099;53.922;10.728;2023-03-23T09:18:31;12.60;71.80
14049;DHT22;7099;53.922;10.728;2023-03-23T09:22:41;12.60;71.50
14049;DHT22;7099;53.922;10.728;2023-03-23T09:26:47;12.50;71.30
14049;DHT22;7099;53.922;10.728;2023-03-23T09:36:00;12.60;70.20
14049;DHT22;7099;53.922;10.728;2023-03-23T09:40:23;12.60;71.50
14049;DHT22;7099;53.922;10.728;2023-03-23T09:45:02;12.60;71.50
14049;DHT22;7099;53.922;10.728;2023-03-23T09:49:59;12.50;71.30
14049;DHT22;7099;53.922;10.728;2023-03-23T09:54:41;12.60;71.10
14049;DHT22;7099;53.922;10.728;2023-03-23T09:59:20;12.80;71.70
14049;DHT22;7099;53.922;10.728;2023-03-23T10:03:46;13.00;71.10
14049;DHT22;7099;53.922;10.728;2023-03-23T10:07:51;13.10;71.20
14049;DHT22;7099;53.922;10.728;2023-03-23T10:17:15;13.40;68.80
14049;DHT22;7099;53.922;10.728;2023-03-23T10:21:24;13.50;68.50
14049;DHT22;7099;53.922;10.728;2023-03-23T10:25:37;13.60;68.60
14049;DHT22;7099;53.922;10.728;2023-03-23T10:29:51;13.80;68.60
14049;DHT22;7099;53.922;10.728;2023-03-23T10:34:10;13.90;68.80
14049;DHT22;7099;53.922;10.728;2023-03-23T10:38:38;14.10;68.00
14049;DHT22;7099;53.922;10.728;2023-03-23T10:42:45;14.20;65.60
14049;DHT22;7099;53.922;10.728;2023-03-23T10:46:59;14.30;66.70
14049;DHT22;7099;53.922;10.728;2023-03-23T10:51:12;14.40;66.60
14049;DHT22;7099;53.922;10.728;2023-03-23T10:55:20;14.60;65.80
14049;DHT22;7099;53.922;10.728;2023-03-23T10:59:29;14.40;63.90
14049;DHT22;7099;53.922;10.728;2023-03-23T11:03:43;14.40;64.70
14049;DHT22;7099;53.922;10.728;2023-03-23T11:07:59;14.50;64.20
14049;DHT22;7099;53.922;10.728;2023-03-23T11:12:16;14.80;63.30
14049;DHT22;7099;53.922;10.728;2023-03-23T11:16:24;14.90;61.20
14049;DHT22;7099;53.922;10.728;2023-03-23T11:20:35;14.90;60.80
14049;DHT22;7099;53.922;10.728;2023-03-23T11:24:45;14.70;59.90
14049;DHT22;7099;53.922;10.728;2023-03-23T11:33:22;14.80;59.60
14049;DHT22;7099;53.922;10.728;2023-03-23T11:37:40;14.70;60.10
14049;DHT22;7099;53.922;10.728;2023-03-23T11:41:46;14.70;58.40
14049;DHT22;7099;53.922;10.728;2023-03-23T11:46:05;14.70;59.00
14049;DHT22;7099;53.922;10.728;2023-03-23T11:50:29;14.70;57.70
14049;DHT22;7099;53.922;10.728;2023-03-23T11:54:46;14.80;58.40
14049;DHT22;7099;53.922;10.728;2023-03-23T11:58:56;14.80;55.80
14049;DHT22;7099;53.922;10.728;2023-03-23T12:03:20;14.80;56.40
14049;DHT22;7099;53.922;10.728;2023-03-23T12:12:33;14.80;54.90
14049;DHT22;7099;53.922;10.728;2023-03-23T12:30:19;15.20;54.90
14049;DHT22;7099;53.922;10.728;2023-03-23T12:34:53;15.30;55.10
14049;DHT22;7099;53.922;10.728;2023-03-23T12:44:06;15.30;54.90
14049;DHT22;7099;53.922;10.728;2023-03-23T12:48:39;15.30;55.00
14049;DHT22;7099;53.922;10.728;2023-03-23T12:52:59;15.40;54.80
14049;DHT22;7099;53.922;10.728;2023-03-23T12:57:15;15.40;55.60
14049;DHT22;7099;53.922;10.728;2023-03-23T13:01:29;15.40;56.10
14049;DHT22;7099;53.922;10.728;2023-03-23T13:05:49;15.40;56.30
14049;DHT22;7099;53.922;10.728;2023-03-23T13:10:15;15.40;56.50
14049;DHT22;7099;53.922;10.728;2023-03-23T13:19:06;15.60;56.50
14049;DHT22;7099;53.922;10.728;2023-03-23T13:23:49;15.60;56.70
14049;DHT22;7099;53.922;10.728;2023-03-23T13:28:01;15.60;55.00
14049;DHT22;7099;53.922;10.728;2023-03-23T13:32:17;15.60;55.80
14049;DHT22;7099;53.922;10.728;2023-03-23T13:40:45;15.70;54.10
14049;DHT22;7099;53.922;10.728;2023-03-23T13:49:19;15.80;55.80
14049;DHT22;7099;53.922;10.728;2023-03-23T13:53:42;15.90;56.30
14049;DHT22;7099;53.922;10.728;2023-03-23T14:02:29;16.40;56.70
14049;DHT22;7099;53.922;10.728;2023-03-23T14:06:37;16.50;57.00
14049;DHT22;7099;53.922;10.728;2023-03-23T14:10:43;16.70;56.40
14049;DHT22;7099;53.922;10.728;2023-03-23T14:15:03;16.60;57.00
14049;DHT22;7099;53.922;10.728;2023-03-23T14:19:27;16.30;57.40
14049;DHT22;7099;53.922;10.728;2023-03-23T14:23:35;16.10;57.50
14049;DHT22;7099;53.922;10.728;2023-03-23T14:27:40;15.90;58.40
14049;DHT22;7099;53.922;10.728;2023-03-23T14:31:56;15.70;58.70
14049;DHT22;7099;53.922;10.728;2023-03-23T14:36:03;15.60;60.50
14049;DHT22;7099;53.922;10.728;2023-03-23T14:40:18;15.50;61.20
14049;DHT22;7099;53.922;10.728;2023-03-23T14:44:31;15.20;61.60
14049;DHT22;7099;53.922;10.728;2023-03-23T14:48:38;15.00;60.60
14049;DHT22;7099;53.922;10.728;2023-03-23T14:52:47;14.90;60.20
14049;DHT22;7099;53.922;10.728;2023-03-23T14:56:53;14.70;59.50
14049;DHT22;7099;53.922;10.728;2023-03-23T15:01:14;14.80;60.70
14049;DHT22;7099;53.922;10.728;2023-03-23T15:05:30;14.60;60.70
14049;DHT22;7099;53.922;10.728;2023-03-23T15:09:40;14.40;60.00
14049;DHT22;7099;53.922;10.728;2023-03-23T15:13:52;14.30;60.30
14049;DHT22;7099;53.922;10.728;2023-03-23T15:18:02;14.20;60.60
14049;DHT22;7099;53.922;10.728;2023-03-23T15:22:24;14.00;60.60
14049;DHT22;7099;53.922;10.728;2023-03-23T15:26:33;14.00;60.30
14049;DHT22;7099;53.922;10.728;2023-03-23T15:30:51;14.00;61.00
14049;DHT22;7099;53.922;10.728;2023-03-23T15:34:57;14.10;60.10
14049;DHT22;7099;53.922;10.728;2023-03-23T15:39:13;14.40;59.80
14049;DHT22;7099;53.922;10.728;2023-03-23T15:43:26;14.60;58.70
14049;DHT22;7099;53.922;10.728;2023-03-23T15:47:50;14.80;58.50
14049;DHT22;7099;53.922;10.728;2023-03-23T15:51:56;15.00;57.60
14049;DHT22;7099;53.922;10.728;2023-03-23T15:56:03;15.00;58.70
14049;DHT22;7099;53.922;10.728;2023-03-23T16:00:09;15.10;58.30
14049;DHT22;7099;53.922;10.728;2023-03-23T16:04:17;15.20;58.40
14049;DHT22;7099;53.922;10.728;2023-03-23T16:08:25;15.30;57.80
14049;DHT22;7099;53.922;10.728;2023-03-23T16:12:32;15.20;57.90
14049;DHT22;7099;53.922;10.728;2023-03-23T16:16:42;15.20;58.40
14049;DHT22;7099;53.922;10.728;2023-03-23T16:20:55;15.20;58.00
14049;DHT22;7099;53.922;10.728;2023-03-23T16:25:01;15.20;57.80
14049;DHT22;7099;53.922;10.728;2023-03-23T16:29:11;15.10;58.00
14049;DHT22;7099;53.922;10.728;2023-03-23T16:33:38;14.80;58.20
14049;DHT22;7099;53.922;10.728;2023-03-23T16:37:53;14.50;58.70
14049;DHT22;7099;53.922;10.728;2023-03-23T16:42:12;14.50;59.00
14049;DHT22;7099;53.922;10.728;2023-03-23T16:46:18;14.40;59.30
14049;DHT22;7099;53.922;10.728;2023-03-23T16:50:24;14.30;59.60
14049;DHT22;7099;53.922;10.728;2023-03-23T16:54:32;14.10;60.00
14049;DHT22;7099;53.922;10.728;2023-03-23T16:58:40;14.00;60.50
14049;DHT22;7099;53.922;10.728;2023-03-23T17:02:48;13.90;60.90
14049;DHT22;7099;53.922;10.728;2023-03-23T17:06:59;13.90;61.10
14049;DHT22;7099;53.922;10.728;2023-03-23T17:11:06;13.80;61.30
14049;DHT22;7099;53.922;10.728;2023-03-23T17:15:12;13.70;61.70
14049;DHT22;7099;53.922;10.728;2023-03-23T17:19:19;13.60;61.90
14049;DHT22;7099;53.922;10.728;2023-03-23T17:23:25;13.60;62.40
14049;DHT22;7099;53.922;10.728;2023-03-23T17:27:37;13.50;62.50
14049;DHT22;7099;53.922;10.728;2023-03-23T17:31:43;13.40;62.80
14049;DHT22;7099;53.922;10.728;2023-03-23T17:35:48;13.30;62.90
14049;DHT22;7099;53.922;10.728;2023-03-23T17:39:56;13.20;62.90
14049;DHT22;7099;53.922;10.728;2023-03-23T17:44:02;13.00;63.10
14049;DHT22;7099;53.922;10.728;2023-03-23T17:48:08;12.90;63.30
14049;DHT22;7099;53.922;10.728;2023-03-23T17:52:14;12.80;63.70
14049;DHT22;7099;53.922;10.728;2023-03-23T17:56:22;12.60;63.90
14049;DHT22;7099;53.922;10.728;2023-03-23T18:00:28;12.50;64.10
14049;DHT22;7099;53.922;10.728;2023-03-23T18:04:35;12.50;64.50
14049;DHT22;7099;53.922;10.728;2023-03-23T18:08:41;12.40;64.70
14049;DHT22;7099;53.922;10.728;2023-03-23T18:12:49;12.30;64.90
14049;DHT22;7099;53.922;10.728;2023-03-23T18:16:58;12.20;64.90
14049;DHT22;7099;53.922;10.728;2023-03-23T18:21:06;12.10;65.20
14049;DHT22;7099;53.922;10.728;2023-03-23T18:25:13;12.00;65.50
14049;DHT22;7099;53.922;10.728;2023-03-23T18:29:19;11.90;65.80
14049;DHT22;7099;53.922;10.728;2023-03-23T18:33:26;11.90;66.20
14049;DHT22;7099;53.922;10.728;2023-03-23T18:37:33;11.90;66.50
14049;DHT22;7099;53.922;10.728;2023-03-23T18:41:39;11.80;66.60
14049;DHT22;7099;53.922;10.728;2023-03-23T18:45:51;11.80;67.20
14049;DHT22;7099;53.922;10.728;2023-03-23T18:49:58;11.60;67.70
14049;DHT22;7099;53.922;10.728;2023-03-23T18:54:07;11.60;67.70
14049;DHT22;7099;53.922;10.728;2023-03-23T18:58:15;11.60;67.80
14049;DHT22;7099;53.922;10.728;2023-03-23T19:02:21;11.60;68.00
14049;DHT22;7099;53.922;10.728;2023-03-23T19:06:28;11.70;68.20
14049;DHT22;7099;53.922;10.728;2023-03-23T19:10:39;11.60;68.10
14049;DHT22;7099;53.922;10.728;2023-03-23T19:14:48;11.50;68.00
14049;DHT22;7099;53.922;10.728;2023-03-23T19:18:55;11.50;67.90
14049;DHT22;7099;53.922;10.728;2023-03-23T19:23:01;11.40;67.90
14049;DHT22;7099;53.922;10.728;2023-03-23T19:27:07;11.40;68.00
14049;DHT22;7099;53.922;10.728;2023-03-23T19:31:13;11.30;68.10
14049;DHT22;7099;53.922;10.728;2023-03-23T19:35:21;11.20;68.20
14049;DHT22;7099;53.922;10.728;2023-03-23T19:39:27;11.20;68.50
14049;DHT22;7099;53.922;10.728;2023-03-23T19:43:33;11.10;68.60
14049;DHT22;7099;53.922;10.728;2023-03-23T19:47:41;11.10;68.80
14049;DHT22;7099;53.922;10.728;2023-03-23T19:51:47;11.00;69.40
14049;DHT22;7099;53.922;10.728;2023-03-23T19:56:15;10.90;69.20
14049;DHT22;7099;53.922;10.728;2023-03-23T20:00:22;10.90;69.50
14049;DHT22;7099;53.922;10.728;2023-03-23T20:04:29;10.80;69.50
14049;DHT22;7099;53.922;10.728;2023-03-23T20:08:35;10.80;69.80
14049;DHT22;7099;53.922;10.728;2023-03-23T20:12:41;10.70;69.80
14049;DHT22;7099;53.922;10.728;2023-03-23T20:16:47;10.70;70.20
14049;DHT22;7099;53.922;10.728;2023-03-23T20:21:07;10.60;70.40
14049;DHT22;7099;53.922;10.728;2023-03-23T20:25:15;10.60;71.30
14049;DHT22;7099;53.922;10.728;2023-03-23T20:29:23;10.60;71.00
14049;DHT22;7099;53.922;10.728;2023-03-23T20:33:28;10.50;71.10
14049;DHT22;7099;53.922;10.728;2023-03-23T20:37:37;10.50;71.50
14049;DHT22;7099;53.922;10.728;2023-03-23T20:41:43;10.50;71.70
14049;DHT22;7099;53.922;10.728;2023-03-23T20:45:51;10.40;71.80
14049;DHT22;7099;53.922;10.728;2023-03-23T20:49:57;10.40;72.10
14049;DHT22;7099;53.922;10.728;2023-03-23T20:54:03;10.40;72.10
14049;DHT22;7099;53.922;10.728;2023-03-23T20:58:10;10.40;72.10
14049;DHT22;7099;53.922;10.728;2023-03-23T21:02:17;10.30;72.10
14049;DHT22;7099;53.922;10.728;2023-03-23T21:06:24;10.30;72.30
14049;DHT22;7099;53.922;10.728;2023-03-23T21:10:33;10.30;72.40
14049;DHT22;7099;53.922;10.728;2023-03-23T21:14:39;10.20;72.90
14049;DHT22;7099;53.922;10.728;2023-03-23T21:18:45;10.20;72.60
14049;DHT22;7099;53.922;10.728;2023-03-23T21:22:51;10.20;72.80
14049;DHT22;7099;53.922;10.728;2023-03-23T21:26:59;10.20;72.80
14049;DHT22;7099;53.922;10.728;2023-03-23T21:31:08;10.10;72.90
14049;DHT22;7099;53.922;10.728;2023-03-23T21:35:14;10.10;73.20
14049;DHT22;7099;53.922;10.728;2023-03-23T21:39:20;10.10;73.00
14049;DHT22;7099;53.922;10.728;2023-03-23T21:43:26;10.10;73.30
14049;DHT22;7099;53.922;10.728;2023-03-23T21:47:32;10.10;73.40
14049;DHT22;7099;53.922;10.728;2023-03-23T21:51:39;10.10;73.60
14049;DHT22;7099;53.922;10.728;2023-03-23T21:55:48;10.10;74.00
14049;DHT22;7099;53.922;10.728;2023-03-23T22:00:00;10.10;74.10
14049;DHT22;7099;53.922;10.728;2023-03-23T22:04:06;10.10;74.30
14049;DHT22;7099;53.922;10.728;2023-03-23T22:08:12;10.10;74.40
14049;DHT22;7099;53.922;10.728;2023-03-23T22:12:18;10.10;74.60
14049;DHT22;7099;53.922;10.728;2023-03-23T22:16:24;10.00;74.80
14049;DHT22;7099;53.922;10.728;2023-03-23T22:20:31;10.00;75.10
14049;DHT22;7099;53.922;10.728;2023-03-23T22:24:37;10.00;75.10
14049;DHT22;7099;53.922;10.728;2023-03-23T22:28:44;10.10;75.40
14049;DHT22;7099;53.922;10.728;2023-03-23T22:32:51;10.10;75.80
14049;DHT22;7099;53.922;10.728;2023-03-23T22:36:56;10.10;75.60
14049;DHT22;7099;53.922;10.728;2023-03-23T22:41:04;10.10;76.50
14049;DHT22;7099;53.922;10.728;2023-03-23T22:45:14;10.00;76.10
14049;DHT22;7099;53.922;10.728;2023-03-23T22:49:19;10.00;76.10
14049;DHT22;7099;53.922;10.728;2023-03-23T22:53:25;10.10;76.40
14049;DHT22;7099;53.922;10.728;2023-03-23T22:57:32;10.10;76.50
14049;DHT22;7099;53.922;10.728;2023-03-23T23:01:39;10.10;76.50
14049;DHT22;7099;53.922;10.728;2023-03-23T23:05:48;10.10;76.80
14049;DHT22;7099;53.922;10.728;2023-03-23T23:09:55;10.20;77.20
14049;DHT22;7099;53.922;10.728;2023-03-23T23:14:01;10.20;76.90
14049;DHT22;7099;53.922;10.728;2023-03-23T23:18:07;10.20;77.00
14049;DHT22;7099;53.922;10.728;2023-03-23T23:22:13;10.20;76.80
14049;DHT22;7099;53.922;10.728;2023-03-23T23:26:23;10.20;76.90
14049;DHT22;7099;53.922;10.728;2023-03-23T23:30:29;10.20;77.00
14049;DHT22;7099;53.922;10.728;2023-03-23T23:34:35;10.20;77.10
14049;DHT22;7099;53.922;10.728;2023-03-23T23:38:42;10.30;77.10
14049;DHT22;7099;53.922;10.728;2023-03-23T23:42:49;10.20;77.20
14049;DHT22;7099;53.922;10.728;2023-03-23T23:46:56;10.30;77.40
14049;DHT22;7099;53.922;10.728;2023-03-23T23:51:03;10.30;77.40
14049;DHT22;7099;53.922;10.728;2023-03-23T23:55:12;10.30;77.20
14049;DHT22;7099;53.922;10.728;2023-03-23T23:59:19;10.30;77.30
